LIPB Airport Information

Runway Information
Runway 01 Length 4255 ft width 98 ft
Elevation 771 ft Threshold 0 ft Heading 10
Runway 19 Length 4255 ft Width 98 ft
Elevation 788 ft Threshold 200 ft Heading 190
Runway 01R Length 2290 ft width 66 ft
Elevation 773 ft Threshold 0 ft Heading 11
Runway 19L Length 2290 ft Width 66 ft
Elevation 782 ft Threshold 0 ft Heading 191
Airport Frequencies
Type AFIS Name INFO Frequency 120.6 MHZ
Airport Navaids
Type NDB Name Bolzano Frequency 362 KHZ
Type VOR-DME Name Bolzano Frequency 117050 KHZ
Airport Weather Information & NOTAM
ADDS - METARS form results

(1316 UTC 22 June 2018)
 
METAR text: LIPB 221250Z 05010KT CAVOK 30/02 Q1010
Conditions at: LIPB (BOLZANO(CIV/IT-A, IT) observed 1250 UTC 22 June 2018
Temperature: 30.0°C (86°F)
Dewpoint: 2.0°C (36°F) [RH = 17%]
Pressure (altimeter): 29.82 inches Hg (1010.0 mb)
Winds: from the NE (50 degrees) at 12 MPH (10 knots; 5.2 m/s)
Visibility: 6 or more miles (10+ km)
Ceiling: ceiling and visibility are OK
Clouds: unknown
Weather: no significant weather observed at this time